sim
Sign-in with your pilot id or email,
or register
Callsign
Passwort

Schedule Details

Flight Number: RYR8806 (2)
Departure: Milan Bergamo Il Caravaggio International Airport (LIME) at 08:40
Arrival: Fuerteventura Airport (GCFV) at 12:55
Route: Ryanair Passenger Schedule. Enter filed route here before submitting Pirep.

Weather Information
Getting current METAR information for LIME 172220Z 01004KT 350V050 CAVOK 20/17 Q1016 NOSIG
Getting current METAR information for GCFV 172200Z 03007KT CAVOK 24/20 Q1013

Schedule Frequency

Route Map